Cobar Mo, Australia

9:13 AM AEDT on December 08, 2016 (GMT +1100)
Cobar | | Change Station

Elev 722 ft 31.54 °S, 145.79 °E | Updated 13 minutes ago

Clear
Clear
82 °F
Feels Like 82 °F
N
16
Wind Variable Wind from North

Today
High -- | Low -- °F
--% Chance of Precip.
Yesterday
High -- | Low -- °F
Precip. -- in
Pressure 29.71 in
Visibility 6.2 miles
Clouds
Heat Index 82 °F
Dew Point 59 °F
Humidity 45%
Rainfall 0.00 in
Snow Depth Not available.
6:04 AM 8:12 PM
First Quarter, 56% visible
METAR YCBA 072200Z AUTO 35014KT 9999 NCD 28/15 Q1006
Pressure 29.71 in
Visibility 6.2 miles
Clouds
Heat Index 82 °F
Dew Point 59 °F
Humidity 45%
Rainfall 0.00 in
Snow Depth Not available.
6:04 AM 8:12 PM
First Quarter, 56% visible
METAR YCBA 072200Z AUTO 35014KT 9999 NCD 28/15 Q1006

10-Day Weather Forecast

×

Almanac

Astronomy

Dec. 08, 2016 Rise Set
Actual Time
Civil Twilight
Nautical Twilight
Astronomical Twilight
Moon
Length of Visible Light
Length of Day
Tomorrow will be .
, % of the Moon is Illuminated

Today's Extremes

Country Highs Country Lows

Community

WunderPhotos

Upload Photos

1,956,209 photos uploaded!

WunderBlog® & News

Nearby

Air Quality

  Air Quality AQ Index Pollutant
Not available.

Snow Depth

Station Depth Elevation

Earthquake Activity

City Distance Mag. Time & Date
Minimum magnitude displayed is 2.5.

Coastal Water Temperatures

Place Temperature

Stations

Nearby Weather Stations

Station Location Temp. Windchill Dew Point Humidity Wind Precip. Elev Updated Type